SAAR/ROS METAR and TAF weather

Enter ICAO airport designator
Station Type Date Time Source
SAAR METAR 2022/06/27 08:00 UTC NOAA

SAAR 270800Z 10003KT 9999 OVC045 09/05 Q1018 RMK PP000


Station Type Date Time Source
SAAR Decoded METAR 2022/06/27 08:00 UTC NOAA

Rosario Aerodrome, Argentina (SAAR) 32-55S 060-47W 25M
Jun 27, 2022 - 04:00 AM EDT / 2022.06.27 0800 UTC
Wind: from the E (100 degrees) at 3 MPH (3 KT):0
Visibility: greater than 7 mile(s):0
Sky conditions: overcast
Temperature: 48 F (9 C)
Dew Point: 41 F (5 C)
Relative Humidity: 75%
Pressure (altimeter): 30.06 in. Hg (1018 hPa)
ob: SAAR 270800Z 10003KT 9999 OVC045 09/05 Q1018 RMK PP000
cycle: 8

Station Type Date Time Source
SAAR TAF 2022/06/27 06:17 UTC NOAA

TAF SAAR 270500Z 2706/2806 07005KT CAVOK TX12/2718Z TN07/2612Z
BECMG 2713/2715 VRB03KT 9999 SCT030 BKN080
TEMPO 2800/2706 7000 RADZ SCT020 BKN045

Example: see airport list